METAR Data
IDs: Format: Raw Decoded Include TAF

Data at: 0131 UTC 10 Dec 2022

K3S8 100115Z AUTO 00000KT 6SM -RA OVC026 05/04 A2979 RMK AO2
K3S8 100055Z AUTO 00000KT 6SM -RA OVC028 05/04 A2979 RMK AO2 P0007
K3S8 100035Z AUTO 00000KT 6SM -RA OVC028 05/04 A2981 RMK AO2
K3S8 100015Z AUTO 00000KT 6SM -RA BKN028 OVC033 05/04 A2981 RMK AO2
K3S8 092355Z AUTO 00000KT 6SM -RA BKN030 OVC037 05/04 A2981 RMK AO2 P0005
K3S8 092335Z AUTO 00000KT 6SM -RA BKN032 BKN038 05/04 A2983 RMK AO2
K3S8 092315Z AUTO 00000KT 7SM -RA BKN032 BKN037 06/04 A2983 RMK AO2
K3S8 092255Z AUTO 00000KT 7SM -RA SCT031 BKN037 06/03 A2984 RMK AO2 P0001
K3S8 092235Z AUTO 00000KT 9SM FEW035 06/03 A2986 RMK AO2
K3S8 092215Z AUTO 00000KT 10SM -UP SCT036 06/03 A2986 RMK AO2
K3S8 092155Z AUTO 00000KT 10SM -UP BKN041 06/02 A2987 RMK AO2
K3S8 092135Z AUTO 00000KT 10SM BKN042 BKN048 06/02 A2988 RMK AO2
K3S8 092115Z AUTO 00000KT 10SM BKN042 BKN047 06/02 A2990 RMK AO2
K3S8 092055Z AUTO 00000KT 10SM BKN043 BKN049 05/02 A2991 RMK AO2
K3S8 092035Z AUTO VRB04KT 10SM BKN041 OVC046 05/02 A2993 RMK AO2
K3S8 092015Z AUTO 00000KT 10SM OVC039 04/03 A2995 RMK AO2
K3S8 091955Z AUTO 00000KT 10SM FEW029 BKN041 BKN047 04/03 A2997 RMK AO2
K3S8 091935Z AUTO 00000KT 10SM FEW028 BKN035 OVC042 04/03 A2999 RMK AO2
K3S8 091915Z AUTO 00000KT 10SM OVC039 04/02 A3001 RMK AO2
K3S8 091855Z AUTO 00000KT 10SM OVC039 04/02 A3002 RMK AO2
K3S8 091835Z AUTO 00000KT 8SM FEW003 OVC040 03/02 A3004 RMK AO2
K3S8 091815Z AUTO 00000KT 8SM FEW028 BKN038 02/02 A3005 RMK AO2
K3S8 091755Z AUTO 00000KT 6SM BR FEW026 FEW031 OVC037 02/01 A3005 RMK AO2
K3S8 091735Z AUTO 00000KT 8SM OVC039 02/02 A3006 RMK AO2
K3S8 091715Z AUTO 00000KT 3SM BR SCT004 BKN038 OVC043 01/01 A3007 RMK AO2
K3S8 091655Z AUTO 00000KT 2SM BR OVC004 01/00 A3008 RMK AO2
K3S8 091635Z AUTO 00000KT 1/2SM FG OVC003 01/00 A3009 RMK AO2
K3S8 091615Z AUTO 00000KT 3/4SM BR OVC002 01/00 A3008 RMK AO2
K3S8 091555Z AUTO 00000KT 1 1/4SM BR BKN002 BKN034 OVC041 01/00 A3008 RMK AO2
K3S8 091535Z AUTO 00000KT 3SM BR FEW006 BKN036 OVC055 01/00 A3009 RMK AO2
K3S8 091515Z AUTO 00000KT 6SM BR BKN007 BKN035 OVC040 01/00 A3009 RMK AO2
K3S8 091455Z AUTO 00000KT 2 1/2SM BR FEW002 BKN007 OVC035 01/00 A3010 RMK AO2
K3S8 091435Z AUTO 00000KT 3SM BR BKN003 OVC007 00/00 A3010 RMK AO2
K3S8 091415Z AUTO 00000KT 1 1/2SM BR OVC005 00/00 A3010 RMK AO2
K3S8 091355Z AUTO 00000KT 6SM BR OVC003 00/M00 A3010 RMK AO2
K3S8 091335Z AUTO 00000KT 6SM BR OVC003 00/M00 A3010 RMK AO2
K3S8 091315Z AUTO 00000KT 6SM BR OVC003 00/M00 A3010 RMK AO2
K3S8 091255Z AUTO 00000KT 4SM BR BKN003 BKN035 OVC065 M00/M01 A3010 RMK AO2
K3S8 091235Z AUTO 00000KT 7SM BKN036 OVC060 00/M01 A3011 RMK AO2
K3S8 091215Z AUTO 00000KT 7SM SCT027 BKN038 OVC046 00/M00 A3012 RMK AO2
K3S8 091155Z AUTO 00000KT 7SM FEW002 BKN026 OVC045 M00/M01 A3013 RMK AO2
K3S8 091135Z AUTO 00000KT 8SM BKN027 BKN036 OVC041 00/M00 A3014 RMK AO2
K3S8 091115Z AUTO 00000KT 10SM OVC040 00/M00 A3014 RMK AO2
K3S8 091055Z AUTO 00000KT 10SM BKN042 BKN049 OVC095 00/M00 A3015 RMK AO2
K3S8 091035Z AUTO 13004KT 8SM FEW041 SCT065 BKN095 M00/M01 A3015 RMK AO2
K3S8 091015Z AUTO 00000KT 6SM BR FEW045 SCT100 00/M00 A3015 RMK AO2
K3S8 090955Z AUTO 00000KT 5SM BR FEW002 OVC100 01/00 A3015 RMK AO2
K3S8 090935Z AUTO 00000KT 1SM BR SCT002 BKN040 OVC100 01/00 A3015 RMK AO2
K3S8 090915Z AUTO 00000KT 6SM BR SCT039 BKN100 01/01 A3016 RMK AO2
K3S8 090855Z AUTO 00000KT 8SM BKN038 OVC100 02/01 A3016 RMK AO2
K3S8 090835Z AUTO 00000KT 10SM OVC038 02/02 A3015 RMK AO2
K3S8 090815Z AUTO 00000KT 10SM OVC037 03/02 A3015 RMK AO2
K3S8 090755Z AUTO 00000KT 10SM BKN040 OVC050 03/02 A3016 RMK AO2
K3S8 090735Z AUTO 00000KT 10SM FEW009 OVC039 03/02 A3015 RMK AO2
K3S8 090715Z AUTO 00000KT 10SM SCT010 SCT013 OVC040 03/02 A3015 RMK AO2
K3S8 090655Z AUTO 17003KT 10SM SCT010 OVC041 03/02 A3015 RMK AO2
K3S8 090635Z AUTO 00000KT 10SM FEW015 BKN041 OVC050 03/02 A3015 RMK AO2
K3S8 090615Z AUTO 14005KT 10SM SCT015 BKN029 OVC055 03/02 A3014 RMK AO2
K3S8 090555Z AUTO 00000KT 10SM BKN016 OVC039 03/02 A3014 RMK AO2
K3S8 090535Z AUTO 00000KT 10SM FEW017 SCT040 BKN050 03/02 A3013 RMK AO2
K3S8 090515Z AUTO 00000KT 10SM FEW018 SCT028 BKN042 03/02 A3013 RMK AO2
K3S8 090455Z AUTO 11005KT 10SM SCT021 BKN043 OVC048 04/02 A3012 RMK AO2 P0004
K3S8 090435Z AUTO 13004KT 5SM -RA BKN020 OVC024 04/03 A3012 RMK AO2
K3S8 090415Z AUTO 00000KT 4SM -RA FEW006 SCT019 BKN024 04/03 A3012 RMK AO2
K3S8 090355Z AUTO VRB03KT 9SM -RA SCT024 BKN034 OVC039 04/03 A3011 RMK AO2
K3S8 090335Z AUTO 00000KT 10SM -RA FEW024 SCT031 BKN041 04/03 A3011 RMK AO2
K3S8 090315Z AUTO 00000KT 8SM -RA FEW029 SCT043 BKN049 04/02 A3010 RMK AO2
K3S8 090255Z AUTO 00000KT 10SM -UP SCT029 BKN042 OVC050 04/03 A3011 RMK AO2
K3S8 090235Z AUTO 13004KT 10SM OVC044 04/03 A3010 RMK AO2
K3S8 090215Z AUTO 00000KT 10SM OVC044 04/03 A3009 RMK AO2
K3S8 090155Z AUTO 00000KT 10SM BKN043 OVC050 04/03 A3009 RMK AO2
K3S8 090135Z AUTO 00000KT 7SM SCT045 BKN050 OVC095 03/03 A3010 RMK AO2
K3S8 090115Z AUTO 00000KT 10SM SCT050 BKN055 BKN085 04/03 A3009 RMK AO2
K3S8 090055Z AUTO 00000KT 10SM BKN050 OVC085 05/04 A3009 RMK AO2
K3S8 090035Z AUTO 00000KT 10SM BKN048 BKN085 05/04 A3009 RMK AO2
K3S8 090015Z AUTO 00000KT 10SM BKN049 OVC060 06/03 A3009 RMK AO2
K3S8 082355Z AUTO 00000KT 10SM BKN049 06/04 A3008 RMK AO2
K3S8 082335Z AUTO 17004KT 10SM FEW050 SCT090 06/04 A3007 RMK AO2
K3S8 082315Z AUTO VRB04KT 10SM FEW021 SCT027 OVC090 06/04 A3007 RMK AO2
K3S8 082255Z AUTO 00000G11KT 10SM BKN026 BKN034 OVC075 06/04 A3006 RMK AO2 P0001
K3S8 082235Z AUTO VRB03KT 10SM FEW031 FEW045 BKN075 06/04 A3004 RMK AO2
K3S8 082215Z AUTO VRB04KT 10SM -RA SCT024 SCT031 BKN070 06/04 A3003 RMK AO2
K3S8 082155Z AUTO 00000KT 9SM BKN023 BKN028 OVC038 05/04 A3004 RMK AO2 P0001
K3S8 082135Z AUTO VRB03KT 8SM BKN022 OVC029 05/04 A3003 RMK AO2
K3S8 082115Z AUTO VRB05G10KT 10SM BKN026 BKN030 05/03 A3003 RMK AO2
K3S8 082055Z AUTO 12004KT 3SM -RA BKN030 BKN035 04/04 A3003 RMK AO2 P0010
K3S8 082035Z AUTO 12005KT 2 1/2SM -RA FEW021 BKN029 BKN035 03/03 A3004 RMK AO2
K3S8 082015Z AUTO 00000KT 3SM -RA BKN021 BKN027 03/02 A3005 RMK AO2
K3S8 081955Z AUTO 00000KT 2 1/2SM -RA BKN020 OVC026 03/02 A3006 RMK AO2 P0010
K3S8 081935Z AUTO 00000KT 2SM -RA OVC027 02/02 A3007 RMK AO2
K3S8 081915Z AUTO 00000KT 2SM -RA FEW003 BKN029 OVC034 02/01 A3006 RMK AO2
K3S8 081855Z AUTO 00000KT 3SM -RA FEW003 OVC028 02/01 A3007 RMK AO2 P0007
K3S8 081835Z AUTO 00000KT 4SM -RA OVC029 02/01 A3007 RMK AO2
K3S8 081815Z AUTO 00000KT 3SM -RA BKN029 02/01 A3007 RMK AO2
K3S8 081755Z AUTO 00000KT 2 1/2SM -RA BKN029 OVC036 02/01 A3008 RMK AO2 P0003
K3S8 081735Z AUTO 00000KT 4SM BR SCT032 OVC038 02/01 A3008 RMK AO2
K3S8 081715Z AUTO 00000KT 4SM -UP SCT031 OVC037 02/01 A3007 RMK AO2
K3S8 081655Z AUTO 00000KT 3SM -UP BKN033 OVC041 02/01 A3008 RMK AO2
K3S8 081635Z AUTO 00000KT 3SM BR FEW023 OVC035 02/01 A3008 RMK AO2
K3S8 081615Z AUTO 00000KT 4SM -UP FEW023 BKN033 OVC045 02/01 A3009 RMK AO2
K3S8 081555Z AUTO 00000KT 7SM -UP FEW027 BKN033 OVC047 02/00 A3009 RMK AO2
K3S8 081535Z AUTO 00000KT 10SM -UP SCT037 OVC047 02/00 A3009 RMK AO2
K3S8 081515Z AUTO 00000KT 9SM OVC047 02/00 A3009 RMK AO2
K3S8 081455Z AUTO 00000KT 10SM OVC047 02/00 A3009 RMK AO2
K3S8 081435Z AUTO 00000KT 9SM OVC048 01/00 A3009 RMK AO2
K3S8 081415Z AUTO 00000KT 8SM OVC048 02/00 A3010 RMK AO2
K3S8 081355Z AUTO 00000KT 7SM OVC045 02/00 A3010 RMK AO2
K3S8 081335Z AUTO 00000KT 8SM OVC045 02/00 A3011 RMK AO2